aviador You're here:

RPLB Decoded Metar

OLONGAPO/SUBIC in PHILIPPINES
Report Time2017-12-11 03:00:00
UTC Time2017-12-11 04:05:09
Flight Rules vfr VFR
Wind090° at 90 kt
W.Decomp.*RWY 07: 84.0 kt HW 32.3 kt RCW
W.Rank090° ranks 5
Current wind is above 090° avg. (7.1)
Visibility9999 m
Phenomena:N/A
Clouds:Scattered 020 Hf
Broken 300 Hf
Expected CloudBase > 3,600 ft AGL from Temp-Dew spread
Ceiling30,000 ft
Temp31°C (ISA +16)
Dew Point22°C (59% RH)
Heat Index34.6°C
AAT3.3°C
QNH1010 hPa
Density Alt2,346 ft
Elevation56 ft
Report Wrong Elevation
Raw Report
METAR RPLB 110300Z 09090KT 9999 SCT020 BKN300 31/22 Q1010
NOSIG RMK A2983=

Extra information for RPLB:More info

Metar Taf Metar & Taf Last 4 Metars F.Rules Stats Wind Profile Meteogram Temp Stats Airport Information Weather charts Add Link Nearby VenuesMetar ALERT Operation Metar Decoded Social comments